sensor_id;sensor_type;location;lat;lon;timestamp;pressure;altitude;pressure_sealevel;temperature;humidity
73551;BME280;61816;53.582;10.096;2023-02-03T00:01:43;101324.28;;;4.73;100.00
73551;BME280;61816;53.582;10.096;2023-02-03T00:04:08;101328.56;;;4.75;100.00
73551;BME280;61816;53.582;10.096;2023-02-03T00:06:34;101327.22;;;4.70;100.00
73551;BME280;61816;53.582;10.096;2023-02-03T00:08:59;101321.84;;;4.70;100.00
73551;BME280;61816;53.582;10.096;2023-02-03T00:11:28;101322.88;;;4.80;100.00
73551;BME280;61816;53.582;10.096;2023-02-03T00:13:54;101319.31;;;4.92;100.00
73551;BME280;61816;53.582;10.096;2023-02-03T00:16:19;101312.97;;;4.93;100.00
73551;BME280;61816;53.582;10.096;2023-02-03T00:18:45;101319.47;;;5.14;100.00
73551;BME280;61816;53.582;10.096;2023-02-03T00:21:10;101310.75;;;5.24;100.00
73551;BME280;61816;53.582;10.096;2023-02-03T00:23:38;101305.38;;;5.24;100.00
73551;BME280;61816;53.582;10.096;2023-02-03T00:26:09;101302.78;;;5.35;100.00
73551;BME280;61816;53.582;10.096;2023-02-03T00:28:34;101306.41;;;5.34;100.00
73551;BME280;61816;53.582;10.096;2023-02-03T00:31:00;101302.06;;;5.44;100.00
73551;BME280;61816;53.582;10.096;2023-02-03T00:33:25;101302.88;;;5.57;100.00
73551;BME280;61816;53.582;10.096;2023-02-03T00:35:50;101295.34;;;5.73;100.00
73551;BME280;61816;53.582;10.096;2023-02-03T00:38:16;101298.38;;;5.93;100.00
73551;BME280;61816;53.582;10.096;2023-02-03T00:40:41;101286.44;;;6.08;100.00
73551;BME280;61816;53.582;10.096;2023-02-03T00:43:06;101296.72;;;6.14;100.00
73551;BME280;61816;53.582;10.096;2023-02-03T00:45:32;101282.81;;;6.32;100.00
73551;BME280;61816;53.582;10.096;2023-02-03T00:47:57;101275.72;;;6.31;100.00
73551;BME280;61816;53.582;10.096;2023-02-03T00:50:23;101269.88;;;6.37;100.00
73551;BME280;61816;53.582;10.096;2023-02-03T00:52:48;101287.47;;;6.41;100.00
73551;BME280;61816;53.582;10.096;2023-02-03T00:55:13;101265.22;;;6.50;100.00
73551;BME280;61816;53.582;10.096;2023-02-03T00:57:39;101264.50;;;6.59;100.00
73551;BME280;61816;53.582;10.096;2023-02-03T01:00:05;101250.28;;;6.57;100.00
73551;BME280;61816;53.582;10.096;2023-02-03T01:02:31;101257.16;;;6.61;100.00
73551;BME280;61816;53.582;10.096;2023-02-03T01:04:56;101259.09;;;6.70;100.00
73551;BME280;61816;53.582;10.096;2023-02-03T01:07:22;101258.31;;;6.91;100.00
73551;BME280;61816;53.582;10.096;2023-02-03T01:09:47;101246.63;;;6.80;100.00
73551;BME280;61816;53.582;10.096;2023-02-03T01:12:12;101244.16;;;6.89;100.00
73551;BME280;61816;53.582;10.096;2023-02-03T01:14:38;101232.88;;;6.95;100.00
73551;BME280;61816;53.582;10.096;2023-02-03T01:17:03;101255.63;;;7.02;100.00
73551;BME280;61816;53.582;10.096;2023-02-03T01:19:29;101235.16;;;7.11;100.00
73551;BME280;61816;53.582;10.096;2023-02-03T01:21:54;101209.56;;;7.16;100.00
73551;BME280;61816;53.582;10.096;2023-02-03T01:24:20;101225.47;;;7.19;100.00
73551;BME280;61816;53.582;10.096;2023-02-03T01:26:45;101223.50;;;7.21;100.00
73551;BME280;61816;53.582;10.096;2023-02-03T01:29:11;101209.00;;;7.33;100.00
73551;BME280;61816;53.582;10.096;2023-02-03T01:31:38;101202.91;;;7.31;100.00
73551;BME280;61816;53.582;10.096;2023-02-03T01:34:06;101208.00;;;7.34;100.00
73551;BME280;61816;53.582;10.096;2023-02-03T01:36:33;101195.81;;;7.30;100.00
73551;BME280;61816;53.582;10.096;2023-02-03T01:38:59;101179.09;;;7.37;100.00
73551;BME280;61816;53.582;10.096;2023-02-03T01:41:27;101175.97;;;7.31;100.00
73551;BME280;61816;53.582;10.096;2023-02-03T01:43:54;101146.78;;;7.37;100.00
73551;BME280;61816;53.582;10.096;2023-02-03T01:46:59;101139.09;;;7.32;100.00
73551;BME280;61816;53.582;10.096;2023-02-03T01:49:28;101150.41;;;7.26;100.00
73551;BME280;61816;53.582;10.096;2023-02-03T01:51:56;101131.34;;;7.39;100.00
73551;BME280;61816;53.582;10.096;2023-02-03T01:54:25;101115.59;;;7.34;100.00
73551;BME280;61816;53.582;10.096;2023-02-03T01:56:55;101137.75;;;7.38;100.00
73551;BME280;61816;53.582;10.096;2023-02-03T01:59:23;101145.69;;;7.39;100.00
73551;BME280;61816;53.582;10.096;2023-02-03T02:01:50;101151.66;;;7.43;100.00
73551;BME280;61816;53.582;10.096;2023-02-03T02:04:17;101152.13;;;7.48;100.00
73551;BME280;61816;53.582;10.096;2023-02-03T02:06:43;101139.44;;;7.39;100.00
73551;BME280;61816;53.582;10.096;2023-02-03T02:09:12;101148.75;;;7.34;100.00
73551;BME280;61816;53.582;10.096;2023-02-03T02:11:38;101144.81;;;7.39;100.00
73551;BME280;61816;53.582;10.096;2023-02-03T02:14:03;101137.97;;;7.34;100.00
73551;BME280;61816;53.582;10.096;2023-02-03T02:19:47;101156.88;;;7.23;100.00
73551;BME280;61816;53.582;10.096;2023-02-03T02:22:27;101146.44;;;7.30;100.00
73551;BME280;61816;53.582;10.096;2023-02-03T02:28:43;101115.91;;;7.41;100.00
73551;BME280;61816;53.582;10.096;2023-02-03T02:31:42;101123.28;;;7.39;100.00
73551;BME280;61816;53.582;10.096;2023-02-03T02:37:34;101121.09;;;7.32;100.00
73551;BME280;61816;53.582;10.096;2023-02-03T02:45:16;101115.66;;;7.44;100.00
73551;BME280;61816;53.582;10.096;2023-02-03T02:47:45;101123.53;;;7.35;100.00
73551;BME280;61816;53.582;10.096;2023-02-03T02:50:16;101120.41;;;7.30;100.00
73551;BME280;61816;53.582;10.096;2023-02-03T02:52:45;101115.00;;;7.30;100.00
73551;BME280;61816;53.582;10.096;2023-02-03T02:55:17;101112.75;;;7.35;100.00
73551;BME280;61816;53.582;10.096;2023-02-03T02:57:50;101117.38;;;7.45;100.00
73551;BME280;61816;53.582;10.096;2023-02-03T03:00:17;101120.53;;;7.50;100.00
73551;BME280;61816;53.582;10.096;2023-02-03T03:02:43;101096.06;;;7.42;100.00
73551;BME280;61816;53.582;10.096;2023-02-03T03:05:09;101093.50;;;7.40;100.00
73551;BME280;61816;53.582;10.096;2023-02-03T03:07:43;101091.28;;;7.45;100.00
73551;BME280;61816;53.582;10.096;2023-02-03T03:10:12;101081.81;;;7.51;100.00
73551;BME280;61816;53.582;10.096;2023-02-03T03:12:45;101080.53;;;7.55;100.00
73551;BME280;61816;53.582;10.096;2023-02-03T03:15:19;101070.50;;;7.57;100.00
73551;BME280;61816;53.582;10.096;2023-02-03T03:20:32;101068.91;;;7.54;100.00
73551;BME280;61816;53.582;10.096;2023-02-03T03:23:03;101072.88;;;7.50;100.00
73551;BME280;61816;53.582;10.096;2023-02-03T03:25:46;101070.28;;;7.49;100.00
73551;BME280;61816;53.582;10.096;2023-02-03T03:28:18;101059.44;;;7.60;100.00
73551;BME280;61816;53.582;10.096;2023-02-03T03:30:48;101063.59;;;7.64;100.00
73551;BME280;61816;53.582;10.096;2023-02-03T03:33:14;101060.16;;;7.62;100.00
73551;BME280;61816;53.582;10.096;2023-02-03T03:35:47;101049.13;;;7.65;100.00
73551;BME280;61816;53.582;10.096;2023-02-03T03:38:21;101043.88;;;7.64;100.00
73551;BME280;61816;53.582;10.096;2023-02-03T03:41:00;101041.44;;;7.60;100.00
73551;BME280;61816;53.582;10.096;2023-02-03T03:43:31;101024.94;;;7.54;100.00
73551;BME280;61816;53.582;10.096;2023-02-03T03:46:05;101017.56;;;7.56;100.00
73551;BME280;61816;53.582;10.096;2023-02-03T03:51:10;101024.94;;;7.54;100.00
73551;BME280;61816;53.582;10.096;2023-02-03T03:53:40;101028.34;;;7.56;100.00
73551;BME280;61816;53.582;10.096;2023-02-03T03:56:10;101035.69;;;7.44;100.00
73551;BME280;61816;53.582;10.096;2023-02-03T03:58:39;101032.88;;;7.46;100.00
73551;BME280;61816;53.582;10.096;2023-02-03T04:01:08;101028.81;;;7.30;100.00
73551;BME280;61816;53.582;10.096;2023-02-03T04:03:40;101064.53;;;7.32;100.00
73551;BME280;61816;53.582;10.096;2023-02-03T04:06:08;101053.50;;;7.35;100.00
73551;BME280;61816;53.582;10.096;2023-02-03T04:08:33;101025.13;;;7.31;100.00
73551;BME280;61816;53.582;10.096;2023-02-03T04:10:59;101028.81;;;7.30;100.00
73551;BME280;61816;53.582;10.096;2023-02-03T04:13:24;101013.91;;;7.26;100.00
73551;BME280;61816;53.582;10.096;2023-02-03T04:15:50;101012.66;;;7.30;100.00
73551;BME280;61816;53.582;10.096;2023-02-03T04:18:15;101022.50;;;7.20;100.00
73551;BME280;61816;53.582;10.096;2023-02-03T04:20:41;100997.50;;;7.08;100.00
73551;BME280;61816;53.582;10.096;2023-02-03T04:23:07;100987.03;;;7.15;100.00
73551;BME280;61816;53.582;10.096;2023-02-03T04:25:33;100984.03;;;7.08;100.00
73551;BME280;61816;53.582;10.096;2023-02-03T04:27:59;100981.66;;;7.15;100.00
73551;BME280;61816;53.582;10.096;2023-02-03T04:30:25;100974.84;;;7.11;100.00
73551;BME280;61816;53.582;10.096;2023-02-03T04:32:51;100976.25;;;7.05;100.00
73551;BME280;61816;53.582;10.096;2023-02-03T04:35:17;100961.66;;;7.08;100.00
73551;BME280;61816;53.582;10.096;2023-02-03T04:37:43;100958.09;;;7.07;100.00
73551;BME280;61816;53.582;10.096;2023-02-03T04:40:09;100963.63;;;7.06;100.00
73551;BME280;61816;53.582;10.096;2023-02-03T04:42:36;100986.16;;;7.05;100.00
73551;BME280;61816;53.582;10.096;2023-02-03T04:45:03;100980.50;;;7.08;100.00
73551;BME280;61816;53.582;10.096;2023-02-03T04:47:32;100974.84;;;7.11;100.00
73551;BME280;61816;53.582;10.096;2023-02-03T04:49:57;100997.69;;;7.17;100.00
73551;BME280;61816;53.582;10.096;2023-02-03T04:52:22;100979.81;;;7.16;100.00
73551;BME280;61816;53.582;10.096;2023-02-03T04:54:48;100976.41;;;7.14;100.00
73551;BME280;61816;53.582;10.096;2023-02-03T04:57:13;100967.41;;;7.24;100.00
73551;BME280;61816;53.582;10.096;2023-02-03T04:59:39;100967.94;;;7.18;100.00
73551;BME280;61816;53.582;10.096;2023-02-03T05:02:04;100948.81;;;7.21;100.00
73551;BME280;61816;53.582;10.096;2023-02-03T05:04:30;100959.34;;;7.24;100.00
73551;BME280;61816;53.582;10.096;2023-02-03T05:06:56;100962.66;;;7.17;100.00
73551;BME280;61816;53.582;10.096;2023-02-03T05:09:23;100956.72;;;7.13;100.00
73551;BME280;61816;53.582;10.096;2023-02-03T05:11:48;100938.91;;;7.22;100.00
73551;BME280;61816;53.582;10.096;2023-02-03T05:14:13;100963.56;;;7.17;100.00
73551;BME280;61816;53.582;10.096;2023-02-03T05:16:39;100917.31;;;7.12;100.00
73551;BME280;61816;53.582;10.096;2023-02-03T05:19:04;100924.88;;;7.18;100.00
73551;BME280;61816;53.582;10.096;2023-02-03T05:21:29;100922.44;;;7.15;100.00
73551;BME280;61816;53.582;10.096;2023-02-03T05:23:55;100904.31;;;7.17;100.00
73551;BME280;61816;53.582;10.096;2023-02-03T05:26:20;100898.94;;;7.17;100.00
73551;BME280;61816;53.582;10.096;2023-02-03T05:28:46;100909.69;;;7.17;100.00
73551;BME280;61816;53.582;10.096;2023-02-03T05:31:11;100912.06;;;7.11;100.00
73551;BME280;61816;53.582;10.096;2023-02-03T05:33:36;100920.72;;;7.14;100.00
73551;BME280;61816;53.582;10.096;2023-02-03T05:36:02;100897.19;;;7.16;100.00
73551;BME280;61816;53.582;10.096;2023-02-03T05:38:27;100913.09;;;7.19;100.00
73551;BME280;61816;53.582;10.096;2023-02-03T05:40:52;100899.50;;;7.21;100.00
73551;BME280;61816;53.582;10.096;2023-02-03T05:43:37;100896.94;;;7.19;100.00
73551;BME280;61816;53.582;10.096;2023-02-03T05:46:04;100904.47;;;7.25;100.00
73551;BME280;61816;53.582;10.096;2023-02-03T05:48:30;100899.81;;;7.27;100.00
73551;BME280;61816;53.582;10.096;2023-02-03T05:50:56;100890.44;;;7.22;100.00
73551;BME280;61816;53.582;10.096;2023-02-03T05:53:21;100892.56;;;7.28;100.00
73551;BME280;61816;53.582;10.096;2023-02-03T05:55:47;100887.91;;;7.30;100.00
73551;BME280;61816;53.582;10.096;2023-02-03T05:58:12;100887.03;;;7.29;100.00
73551;BME280;61816;53.582;10.096;2023-02-03T06:00:38;100886.78;;;7.32;100.00
73551;BME280;61816;53.582;10.096;2023-02-03T06:03:03;100879.97;;;7.28;100.00
73551;BME280;61816;53.582;10.096;2023-02-03T06:05:30;100883.09;;;7.33;100.00
73551;BME280;61816;53.582;10.096;2023-02-03T06:07:56;100857.97;;;7.23;100.00
73551;BME280;61816;53.582;10.096;2023-02-03T06:10:22;100890.72;;;7.19;100.00
73551;BME280;61816;53.582;10.096;2023-02-03T06:12:47;100863.47;;;7.12;100.00
73551;BME280;61816;53.582;10.096;2023-02-03T06:15:13;100851.63;;;7.24;100.00
73551;BME280;61816;53.582;10.096;2023-02-03T06:17:39;100839.41;;;7.20;100.00
73551;BME280;61816;53.582;10.096;2023-02-03T06:20:05;100831.47;;;7.28;100.00
73551;BME280;61816;53.582;10.096;2023-02-03T06:22:31;100843.09;;;7.19;100.00
73551;BME280;61816;53.582;10.096;2023-02-03T06:24:57;100823.53;;;7.17;100.00
73551;BME280;61816;53.582;10.096;2023-02-03T06:27:22;100822.97;;;7.23;100.00
73551;BME280;61816;53.582;10.096;2023-02-03T06:29:48;100821.25;;;7.22;100.00
73551;BME280;61816;53.582;10.096;2023-02-03T06:32:14;100812.19;;;7.23;100.00
73551;BME280;61816;53.582;10.096;2023-02-03T06:34:39;100837.16;;;7.25;100.00
73551;BME280;61816;53.582;10.096;2023-02-03T06:37:05;100827.25;;;7.26;100.00
73551;BME280;61816;53.582;10.096;2023-02-03T06:39:33;100824.13;;;7.30;100.00
73551;BME280;61816;53.582;10.096;2023-02-03T06:41:58;100807.69;;;7.33;100.00
73551;BME280;61816;53.582;10.096;2023-02-03T06:44:24;100814.22;;;7.31;100.00
73551;BME280;61816;53.582;10.096;2023-02-03T06:46:49;100809.38;;;7.34;100.00
73551;BME280;61816;53.582;10.096;2023-02-03T06:49:15;100801.03;;;7.38;100.00
73551;BME280;61816;53.582;10.096;2023-02-03T06:51:42;100808.13;;;7.39;100.00
73551;BME280;61816;53.582;10.096;2023-02-03T06:54:07;100799.50;;;7.45;100.00
73551;BME280;61816;53.582;10.096;2023-02-03T06:56:34;100802.88;;;7.47;100.00
73551;BME280;61816;53.582;10.096;2023-02-03T06:58:59;100802.63;;;7.50;100.00
73551;BME280;61816;53.582;10.096;2023-02-03T07:01:25;100792.97;;;7.57;100.00
73551;BME280;61816;53.582;10.096;2023-02-03T07:03:50;100809.16;;;7.57;100.00
73551;BME280;61816;53.582;10.096;2023-02-03T07:06:16;100813.69;;;7.66;100.00
73551;BME280;61816;53.582;10.096;2023-02-03T07:08:41;100804.59;;;7.67;100.00
73551;BME280;61816;53.582;10.096;2023-02-03T07:11:07;100801.19;;;7.75;100.00
73551;BME280;61816;53.582;10.096;2023-02-03T07:13:32;100803.78;;;7.76;100.00
73551;BME280;61816;53.582;10.096;2023-02-03T07:15:57;100773.69;;;7.71;100.00
73551;BME280;61816;53.582;10.096;2023-02-03T07:18:23;100808.44;;;7.74;100.00
73551;BME280;61816;53.582;10.096;2023-02-03T07:20:51;100785.59;;;7.78;100.00
73551;BME280;61816;53.582;10.096;2023-02-03T07:23:16;100768.84;;;7.75;100.00
73551;BME280;61816;53.582;10.096;2023-02-03T07:25:42;100783.59;;;7.80;100.00
73551;BME280;61816;53.582;10.096;2023-02-03T07:28:16;100793.56;;;7.70;100.00
73551;BME280;61816;53.582;10.096;2023-02-03T07:30:41;100778.78;;;7.74;100.00
73551;BME280;61816;53.582;10.096;2023-02-03T07:33:07;100788.44;;;7.77;100.00
73551;BME280;61816;53.582;10.096;2023-02-03T07:35:32;100780.78;;;7.72;100.00
73551;BME280;61816;53.582;10.096;2023-02-03T07:37:59;100798.38;;;7.76;100.00
73551;BME280;61816;53.582;10.096;2023-02-03T07:40:24;100777.38;;;7.80;100.00
73551;BME280;61816;53.582;10.096;2023-02-03T07:42:49;100782.59;;;7.81;100.00
73551;BME280;61816;53.582;10.096;2023-02-03T07:45:16;100796.94;;;7.82;100.00
73551;BME280;61816;53.582;10.096;2023-02-03T07:47:42;100770.25;;;7.88;100.00
73551;BME280;61816;53.582;10.096;2023-02-03T07:50:09;100789.00;;;7.90;100.00
73551;BME280;61816;53.582;10.096;2023-02-03T07:52:36;100800.19;;;7.95;100.00
73551;BME280;61816;53.582;10.096;2023-02-03T07:55:02;100825.34;;;7.96;100.00
73551;BME280;61816;53.582;10.096;2023-02-03T07:57:28;100753.25;;;7.98;100.00
73551;BME280;61816;53.582;10.096;2023-02-03T07:59:53;100756.94;;;7.97;100.00
73551;BME280;61816;53.582;10.096;2023-02-03T08:02:19;100776.81;;;7.96;100.00
73551;BME280;61816;53.582;10.096;2023-02-03T08:04:44;100791.25;;;7.95;100.00
73551;BME280;61816;53.582;10.096;2023-02-03T08:07:09;100807.72;;;7.92;100.00
73551;BME280;61816;53.582;10.096;2023-02-03T08:09:35;100832.44;;;7.97;100.00
73551;BME280;61816;53.582;10.096;2023-02-03T08:12:00;100834.13;;;7.98;100.00
73551;BME280;61816;53.582;10.096;2023-02-03T08:14:26;100832.69;;;7.94;100.00
73551;BME280;61816;53.582;10.096;2023-02-03T08:16:51;100840.50;;;7.97;100.00
73551;BME280;61816;53.582;10.096;2023-02-03T08:19:16;100861.06;;;7.78;100.00
73551;BME280;61816;53.582;10.096;2023-02-03T08:21:42;100882.63;;;7.78;100.00
73551;BME280;61816;53.582;10.096;2023-02-03T08:24:07;100853.69;;;7.80;100.00
73551;BME280;61816;53.582;10.096;2023-02-03T08:26:34;100891.97;;;7.74;100.00
73551;BME280;61816;53.582;10.096;2023-02-03T08:29:00;100867.03;;;7.72;100.00
73551;BME280;61816;53.582;10.096;2023-02-03T08:31:25;100854.53;;;7.71;100.00
73551;BME280;61816;53.582;10.096;2023-02-03T08:33:50;100867.03;;;7.72;100.00
73551;BME280;61816;53.582;10.096;2023-02-03T08:36:16;100879.22;;;7.67;100.00
73551;BME280;61816;53.582;10.096;2023-02-03T08:38:41;100868.72;;;7.73;100.00
73551;BME280;61816;53.582;10.096;2023-02-03T08:41:09;100856.22;;;7.82;100.00
73551;BME280;61816;53.582;10.096;2023-02-03T08:43:35;100890.28;;;7.73;100.00
73551;BME280;61816;53.582;10.096;2023-02-03T08:46:09;100886.75;;;7.82;100.00
73551;BME280;61816;53.582;10.096;2023-02-03T08:48:34;100898.81;;;7.78;100.00
73551;BME280;61816;53.582;10.096;2023-02-03T08:51:00;100880.63;;;7.80;100.00
73551;BME280;61816;53.582;10.096;2023-02-03T08:53:25;100887.03;;;7.79;100.00
73551;BME280;61816;53.582;10.096;2023-02-03T08:55:51;100900.94;;;7.84;100.00
73551;BME280;61816;53.582;10.096;2023-02-03T08:58:17;100886.63;;;7.84;100.00
73551;BME280;61816;53.582;10.096;2023-02-03T09:00:42;100910.13;;;7.82;100.00
73551;BME280;61816;53.582;10.096;2023-02-03T09:03:08;100885.59;;;7.75;100.00
73551;BME280;61816;53.582;10.096;2023-02-03T09:05:34;100897.94;;;7.87;100.00
73551;BME280;61816;53.582;10.096;2023-02-03T09:07:59;100896.53;;;7.74;100.00
73551;BME280;61816;53.582;10.096;2023-02-03T09:10:25;100909.44;;;7.80;100.00
73551;BME280;61816;53.582;10.096;2023-02-03T09:12:50;100907.59;;;7.80;100.00
73551;BME280;61816;53.582;10.096;2023-02-03T09:15:16;100882.63;;;7.78;100.00
73551;BME280;61816;53.582;10.096;2023-02-03T09:17:41;100898.09;;;7.76;100.00
73551;BME280;61816;53.582;10.096;2023-02-03T09:20:10;100877.25;;;7.78;100.00
73551;BME280;61816;53.582;10.096;2023-02-03T09:22:40;100905.63;;;7.82;100.00
73551;BME280;61816;53.582;10.096;2023-02-03T09:25:06;100914.41;;;7.84;100.00
73551;BME280;61816;53.582;10.096;2023-02-03T09:27:32;100896.00;;;7.89;100.00
73551;BME280;61816;53.582;10.096;2023-02-03T09:29:57;100912.72;;;7.83;100.00
73551;BME280;61816;53.582;10.096;2023-02-03T09:32:24;100908.31;;;7.82;100.00
73551;BME280;61816;53.582;10.096;2023-02-03T09:34:49;100891.72;;;7.77;100.00
73551;BME280;61816;53.582;10.096;2023-02-03T09:37:15;100893.41;;;7.78;100.00
73551;BME280;61816;53.582;10.096;2023-02-03T09:39:40;100920.06;;;7.81;100.00
73551;BME280;61816;53.582;10.096;2023-02-03T09:42:18;100934.53;;;7.80;100.00
73551;BME280;61816;53.582;10.096;2023-02-03T09:47:35;100950.47;;;7.83;100.00
73551;BME280;61816;53.582;10.096;2023-02-03T09:50:05;100942.19;;;7.75;100.00
73551;BME280;61816;53.582;10.096;2023-02-03T09:52:36;100961.50;;;7.80;100.00
73551;BME280;61816;53.582;10.096;2023-02-03T09:55:15;100968.88;;;7.78;100.00
73551;BME280;61816;53.582;10.096;2023-02-03T09:57:49;100977.97;;;7.77;100.00
73551;BME280;61816;53.582;10.096;2023-02-03T10:00:22;100990.44;;;7.78;100.00
73551;BME280;61816;53.582;10.096;2023-02-03T10:03:06;100959.69;;;7.91;100.00
73551;BME280;61816;53.582;10.096;2023-02-03T10:11:15;100965.19;;;7.79;100.00
73551;BME280;61816;53.582;10.096;2023-02-03T10:14:00;100990.88;;;7.83;100.00
73551;BME280;61816;53.582;10.096;2023-02-03T10:19:23;100994.13;;;7.77;100.00
73551;BME280;61816;53.582;10.096;2023-02-03T10:21:57;101002.94;;;7.79;100.00
73551;BME280;61816;53.582;10.096;2023-02-03T10:24:42;100995.84;;;7.78;100.00
73551;BME280;61816;53.582;10.096;2023-02-03T10:27:19;100974.28;;;7.78;100.00
73551;BME280;61816;53.582;10.096;2023-02-03T10:29:52;101026.19;;;7.80;100.00
73551;BME280;61816;53.582;10.096;2023-02-03T10:32:23;101004.06;;;7.86;100.00
73551;BME280;61816;53.582;10.096;2023-02-03T10:34:52;101014.88;;;7.86;100.00
73551;BME280;61816;53.582;10.096;2023-02-03T10:37:33;101011.19;;;7.87;100.00
73551;BME280;61816;53.582;10.096;2023-02-03T10:40:03;101032.19;;;7.94;100.00
73551;BME280;61816;53.582;10.096;2023-02-03T10:42:30;101002.38;;;7.85;100.00
73551;BME280;61816;53.582;10.096;2023-02-03T10:45:17;101022.94;;;7.86;100.00
73551;BME280;61816;53.582;10.096;2023-02-03T10:47:54;101040.41;;;7.82;100.00
73551;BME280;61816;53.582;10.096;2023-02-03T10:50:25;101041.81;;;7.86;100.00
73551;BME280;61816;53.582;10.096;2023-02-03T10:55:43;101057.38;;;7.73;100.00
73551;BME280;61816;53.582;10.096;2023-02-03T10:58:15;101065.47;;;7.73;100.00
73551;BME280;61816;53.582;10.096;2023-02-03T11:00:42;101030.44;;;7.73;100.00
73551;BME280;61816;53.582;10.096;2023-02-03T11:03:22;101044.06;;;7.81;100.00
73551;BME280;61816;53.582;10.096;2023-02-03T11:06:05;101048.38;;;7.94;100.00
73551;BME280;61816;53.582;10.096;2023-02-03T11:08:33;101053.16;;;7.80;100.00
73551;BME280;61816;53.582;10.096;2023-02-03T11:11:07;101055.19;;;7.98;100.00
73551;BME280;61816;53.582;10.096;2023-02-03T11:13:33;101053.50;;;7.97;100.00
73551;BME280;61816;53.582;10.096;2023-02-03T11:16:04;101041.28;;;7.93;100.00
73551;BME280;61816;53.582;10.096;2023-02-03T11:18:40;101054.31;;;7.87;100.00
73551;BME280;61816;53.582;10.096;2023-02-03T11:21:21;101056.59;;;7.92;100.00
73551;BME280;61816;53.582;10.096;2023-02-03T11:23:52;101045.28;;;8.08;100.00
73551;BME280;61816;53.582;10.096;2023-02-03T11:26:21;101047.81;;;8.00;100.00
73551;BME280;61816;53.582;10.096;2023-02-03T11:28:49;101050.13;;;8.14;100.00
73551;BME280;61816;53.582;10.096;2023-02-03T11:31:18;101068.34;;;8.31;100.00
73551;BME280;61816;53.582;10.096;2023-02-03T11:33:51;101056.13;;;8.18;100.00
73551;BME280;61816;53.582;10.096;2023-02-03T11:36:17;101039.63;;;8.11;100.00
73551;BME280;61816;53.582;10.096;2023-02-03T11:38:43;101065.22;;;8.26;100.00
73551;BME280;61816;53.582;10.096;2023-02-03T11:41:17;101064.59;;;8.13;100.00
73551;BME280;61816;53.582;10.096;2023-02-03T11:43:44;101063.50;;;8.15;100.00
73551;BME280;61816;53.582;10.096;2023-02-03T11:46:09;101073.44;;;8.15;100.00
73551;BME280;61816;53.582;10.096;2023-02-03T11:49:11;101069.53;;;8.38;100.00
73551;BME280;61816;53.582;10.096;2023-02-03T11:54:55;101062.06;;;8.21;100.00
73551;BME280;61816;53.582;10.096;2023-02-03T12:11:59;101076.38;;;8.12;100.00
73551;BME280;61816;53.582;10.096;2023-02-03T12:20:30;101086.41;;;8.40;100.00
73551;BME280;61816;53.582;10.096;2023-02-03T12:23:11;101086.31;;;8.52;100.00
73551;BME280;61816;53.582;10.096;2023-02-03T12:31:14;101115.13;;;8.11;100.00
73551;BME280;61816;53.582;10.096;2023-02-03T12:33:53;101112.44;;;8.11;100.00
73551;BME280;61816;53.582;10.096;2023-02-03T12:36:26;101120.38;;;8.03;100.00
73551;BME280;61816;53.582;10.096;2023-02-03T12:39:07;101098.34;;;7.98;100.00
73551;BME280;61816;53.582;10.096;2023-02-03T12:41:42;101109.06;;;7.88;100.00
73551;BME280;61816;53.582;10.096;2023-02-03T12:44:22;101072.19;;;7.88;100.00
73551;BME280;61816;53.582;10.096;2023-02-03T12:47:13;101115.88;;;7.82;100.00
73551;BME280;61816;53.582;10.096;2023-02-03T12:49:46;101142.56;;;7.85;100.00
73551;BME280;61816;53.582;10.096;2023-02-03T12:52:17;101102.66;;;7.79;100.00
73551;BME280;61816;53.582;10.096;2023-02-03T12:54:47;101119.53;;;7.81;100.00
73551;BME280;61816;53.582;10.096;2023-02-03T12:57:26;101134.53;;;7.74;100.00
73551;BME280;61816;53.582;10.096;2023-02-03T13:00:19;101089.31;;;7.78;100.00
73551;BME280;61816;53.582;10.096;2023-02-03T13:03:09;101136.00;;;7.78;100.00
73551;BME280;61816;53.582;10.096;2023-02-03T13:06:05;101107.34;;;7.77;100.00
73551;BME280;61816;53.582;10.096;2023-02-03T13:08:40;101131.13;;;7.72;100.00
73551;BME280;61816;53.582;10.096;2023-02-03T13:11:17;101141.38;;;7.78;100.00
73551;BME280;61816;53.582;10.096;2023-02-03T13:13:49;101116.94;;;7.70;100.00
73551;BME280;61816;53.582;10.096;2023-02-03T13:16:21;101136.53;;;7.72;100.00
73551;BME280;61816;53.582;10.096;2023-02-03T13:18:53;101177.66;;;7.74;100.00
73551;BME280;61816;53.582;10.096;2023-02-03T13:21:21;101160.59;;;7.64;100.00
73551;BME280;61816;53.582;10.096;2023-02-03T13:23:47;101168.06;;;7.81;100.00
73551;BME280;61816;53.582;10.096;2023-02-03T13:26:46;101154.06;;;7.67;100.00
73551;BME280;61816;53.582;10.096;2023-02-03T13:29:35;101190.69;;;7.69;100.00
73551;BME280;61816;53.582;10.096;2023-02-03T13:32:23;101147.84;;;7.66;100.00
73551;BME280;61816;53.582;10.096;2023-02-03T13:37:34;101198.84;;;7.58;100.00
73551;BME280;61816;53.582;10.096;2023-02-03T13:40:24;101165.84;;;7.66;100.00
73551;BME280;61816;53.582;10.096;2023-02-03T13:42:57;101179.91;;;7.69;100.00
73551;BME280;61816;53.582;10.096;2023-02-03T13:45:31;101204.97;;;7.60;100.00
73551;BME280;61816;53.582;10.096;2023-02-03T13:48:25;101157.44;;;7.59;100.00
73551;BME280;61816;53.582;10.096;2023-02-03T13:51:03;101138.41;;;7.51;100.00
73551;BME280;61816;53.582;10.096;2023-02-03T13:53:35;101171.81;;;7.48;100.00
73551;BME280;61816;53.582;10.096;2023-02-03T13:56:03;101167.38;;;7.58;100.00
73551;BME280;61816;53.582;10.096;2023-02-03T13:58:32;101161.66;;;7.52;100.00